createdAt,value
2019-06-07T00:00:39.927Z,3.29
2019-06-07T00:05:45.283Z,3.20
2019-06-07T00:10:52.950Z,3.11
2019-06-07T00:16:00.539Z,3.13
2019-06-07T00:21:08.916Z,3.30
2019-06-07T00:26:20.451Z,3.22
2019-06-07T00:31:24.498Z,3.41
2019-06-07T00:36:29.650Z,3.25
2019-06-07T00:41:37.272Z,3.42
2019-06-07T00:46:44.864Z,3.18
2019-06-07T00:51:53.800Z,3.32
2019-06-07T00:56:59.689Z,3.35
2019-06-07T01:02:07.359Z,3.24
2019-06-07T01:07:17.099Z,3.30
2019-06-07T01:12:23.907Z,3.37
2019-06-07T01:17:40.953Z,3.39
2019-06-07T01:22:36.439Z,3.38
2019-06-07T01:27:44.007Z,3.59
2019-06-07T01:32:51.684Z,3.50
2019-06-07T01:37:59.285Z,3.37
2019-06-07T01:43:06.964Z,3.62
2019-06-07T01:48:14.566Z,3.57
2019-06-07T01:53:23.836Z,3.73
2019-06-07T01:58:29.393Z,3.59
2019-06-07T02:03:37.054Z,3.59
2019-06-07T02:08:44.674Z,3.73
2019-06-07T02:13:52.177Z,3.67
2019-06-07T02:19:01.668Z,3.79
2019-06-07T02:24:06.924Z,3.54
2019-06-07T02:29:14.515Z,3.86
2019-06-07T02:34:24.115Z,3.70
2019-06-07T02:39:34.428Z,3.86
2019-06-07T02:44:39.503Z,3.56
2019-06-07T02:49:44.573Z,3.74
2019-06-07T02:54:50.781Z,3.78
2019-06-07T03:00:07.588Z,3.99
2019-06-07T03:05:06.655Z,3.92
2019-06-07T03:10:14.277Z,3.92
2019-06-07T03:15:36.049Z,3.83
2019-06-07T03:20:32.409Z,3.93
2019-06-07T03:25:37.264Z,3.88
2019-06-07T03:31:01.048Z,3.94
2019-06-07T03:35:50.607Z,3.92
2019-06-07T03:40:58.190Z,3.89
2019-06-07T03:46:05.830Z,3.99
2019-06-07T03:51:24.511Z,4.16
2019-06-07T03:56:20.630Z,4.26
2019-06-07T04:01:29.009Z,4.25
2019-06-07T04:06:36.816Z,4.14
2019-06-07T04:11:42.677Z,3.93
2019-06-07T04:16:50.337Z,4.09
2019-06-07T04:21:57.954Z,4.13
2019-06-07T04:27:05.628Z,3.85
2019-06-07T04:32:13.238Z,4.07
2019-06-07T04:37:20.867Z,3.95
2019-06-07T04:42:30.021Z,3.85
2019-06-07T04:47:37.253Z,3.83
2019-06-07T04:52:45.177Z,3.83
2019-06-07T04:57:50.766Z,3.71
2019-06-07T05:02:57.063Z,3.82
2019-06-07T05:08:07.485Z,3.93
2019-06-07T05:13:11.829Z,3.98
2019-06-07T05:18:19.461Z,4.04
2019-06-07T05:24:03.571Z,3.93
2019-06-07T05:28:35.154Z,3.81
2019-06-07T05:33:43.261Z,3.73
2019-06-07T05:38:48.581Z,3.66
2019-06-07T05:44:11.977Z,3.55
2019-06-07T05:49:03.401Z,3.57
2019-06-07T05:54:10.993Z,3.53
2019-06-07T05:59:18.489Z,3.39
2019-06-07T06:04:26.085Z,3.05
2019-06-07T06:09:36.163Z,3.21
2019-06-07T06:14:42.312Z,3.24
2019-06-07T06:19:50.346Z,3.01
2019-06-07T06:25:29.784Z,3.12
2019-06-07T06:30:02.425Z,3.25
2019-06-07T06:35:10.031Z,3.15
2019-06-07T06:40:17.865Z,3.03
2019-06-07T06:45:25.551Z,3.27
2019-06-07T06:50:33.153Z,3.44
2019-06-07T06:55:41.504Z,3.51
2019-06-07T07:00:56.962Z,3.47
2019-06-07T07:05:55.291Z,3.66
2019-06-07T07:11:02.211Z,3.34
2019-06-07T07:16:09.825Z,3.61
2019-06-07T07:21:17.450Z,3.59
2019-06-07T07:26:25.055Z,3.77
2019-06-07T07:31:32.758Z,3.72
2019-06-07T07:36:40.372Z,3.55
2019-06-07T07:42:12.391Z,3.36
2019-06-07T07:46:56.323Z,3.28
2019-06-07T07:52:02.280Z,3.31
2019-06-07T07:57:09.873Z,3.37
2019-06-07T08:02:17.520Z,3.33
2019-06-07T08:07:25.117Z,3.53
2019-06-07T08:12:55.520Z,3.21
2019-06-07T08:17:39.879Z,3.61
2019-06-07T08:22:47.745Z,3.45
2019-06-07T08:27:56.863Z,3.57
2019-06-07T08:33:24.662Z,3.31
2019-06-07T08:38:26.388Z,3.46
2019-06-07T08:43:20.681Z,3.39
2019-06-07T08:48:27.861Z,3.39
2019-06-07T08:53:31.105Z,3.56
2019-06-07T08:58:38.906Z,3.49
2019-06-07T09:03:46.399Z,3.63
2019-06-07T09:08:55.570Z,3.50
2019-06-07T09:14:05.372Z,3.58
2019-06-07T09:19:10.953Z,3.56
2019-06-07T09:24:15.544Z,3.57
2019-06-07T09:29:23.143Z,3.76
2019-06-07T09:34:30.815Z,3.49
2019-06-07T09:39:38.406Z,3.49
2019-06-07T09:44:46.094Z,3.47
2019-06-07T09:49:53.688Z,3.91
2019-06-07T09:55:09.506Z,3.60
2019-06-07T10:00:38.172Z,3.69
2019-06-07T10:05:15.679Z,3.78
2019-06-07T10:15:30.447Z,3.46
2019-06-07T10:20:38.075Z,3.91
2019-06-07T10:25:45.697Z,3.75
2019-06-07T10:30:53.304Z,3.55
2019-06-07T10:36:00.937Z,3.84
2019-06-07T10:41:08.922Z,3.62
2019-06-07T10:46:15.745Z,3.50
2019-06-07T10:51:23.350Z,3.66
2019-06-07T10:56:31.023Z,3.51
2019-06-07T11:01:38.616Z,3.51
2019-06-07T11:06:46.361Z,3.60
2019-06-07T11:11:53.961Z,3.71
2019-06-07T11:17:01.667Z,3.60
2019-06-07T11:22:10.185Z,3.66
2019-06-07T11:27:16.600Z,3.32
2019-06-07T11:32:23.947Z,3.57
2019-06-07T11:37:31.592Z,3.61
2019-06-07T11:42:39.196Z,3.61
2019-06-07T11:47:46.923Z,3.50
2019-06-07T11:52:54.494Z,3.74
2019-06-07T11:58:02.134Z,3.60
2019-06-07T12:03:09.723Z,3.50
2019-06-07T12:08:18.181Z,3.67
2019-06-07T12:13:26.954Z,3.82
2019-06-07T12:18:31.718Z,3.42
2019-06-07T12:23:39.430Z,3.79
2019-06-07T12:28:47.128Z,3.20
2019-06-07T12:33:54.726Z,3.34
2019-06-07T12:39:02.410Z,3.25
2019-06-07T12:44:09.995Z,3.38
2019-06-07T12:49:19.115Z,3.01
2019-06-07T12:54:24.787Z,3.35
2019-06-07T12:59:32.442Z,2.88
2019-06-07T13:04:40.050Z,3.04
2019-06-07T13:09:47.673Z,3.04
2019-06-07T13:14:55.303Z,3.26
2019-06-07T13:20:02.957Z,3.08
2019-06-07T13:25:10.572Z,3.03
2019-06-07T13:30:18.974Z,3.14
2019-06-07T13:35:25.520Z,3.01
2019-06-07T13:40:33.021Z,2.78
2019-06-07T13:45:40.607Z,3.04
2019-06-07T13:50:48.254Z,3.11
2019-06-07T13:55:55.852Z,2.87
2019-06-07T14:01:03.586Z,2.95
2019-06-07T14:06:11.173Z,3.20
2019-06-07T14:11:19.397Z,3.09
2019-06-07T14:16:26.328Z,2.73
2019-06-07T14:21:33.663Z,3.30
2019-06-07T14:26:41.253Z,3.11
2019-06-07T14:31:48.896Z,3.16
2019-06-07T14:36:56.510Z,3.17
2019-06-07T14:42:09.649Z,3.03
2019-06-07T14:47:11.304Z,3.03
2019-06-07T14:52:18.990Z,2.94
2019-06-07T14:57:26.930Z,3.00
2019-06-07T15:02:36.469Z,3.01
2019-06-07T15:07:40.983Z,3.15
2019-06-07T15:12:48.824Z,3.18
2019-06-07T15:17:56.453Z,3.20
2019-06-07T15:23:04.123Z,3.46
2019-06-07T15:28:11.698Z,3.29
2019-06-07T15:33:19.327Z,3.48
2019-06-07T15:38:26.930Z,3.16
2019-06-07T15:43:35.152Z,3.28
2019-06-07T15:48:41.726Z,3.08
2019-06-07T15:53:49.395Z,3.33
2019-06-07T15:58:56.990Z,3.43
2019-06-07T16:04:04.646Z,4.01
2019-06-07T16:09:12.261Z,4.06
2019-06-07T16:14:20.091Z,4.38
2019-06-07T16:19:27.666Z,4.60
2019-06-07T16:24:35.626Z,4.36
2019-06-07T16:29:42.933Z,4.04
2019-06-07T16:34:50.574Z,3.60
2019-06-07T16:39:58.208Z,2.73
2019-06-07T16:45:05.839Z,3.24
2019-06-07T16:50:13.446Z,2.55
2019-06-07T16:55:21.103Z,1.80
2019-06-07T17:00:28.707Z,2.12
2019-06-07T17:05:37.672Z,2.02
2019-06-07T17:10:44.232Z,1.83
2019-06-07T17:15:50.802Z,1.68
2019-06-07T17:20:58.387Z,1.96
2019-06-07T17:26:06.064Z,2.12
2019-06-07T17:31:13.655Z,1.78
2019-06-07T17:36:21.323Z,1.41
2019-06-07T17:41:28.918Z,2.05
2019-06-07T17:46:36.592Z,2.05
2019-06-07T17:51:44.246Z,1.89
2019-06-07T17:56:53.196Z,1.77
2019-06-07T18:02:13.934Z,2.00
2019-06-07T18:07:06.248Z,1.50
2019-06-07T18:12:13.938Z,1.67
2019-06-07T18:17:34.050Z,1.84
2019-06-07T18:22:28.856Z,1.66
2019-06-07T18:27:36.531Z,1.43
2019-06-07T18:32:44.114Z,1.40
2019-06-07T18:37:53.024Z,1.38
2019-06-07T18:42:59.518Z,1.41
2019-06-07T18:48:06.104Z,1.80
2019-06-07T18:53:13.688Z,1.37
2019-06-07T18:58:21.361Z,1.44
2019-06-07T19:03:28.965Z,1.94
2019-06-07T19:08:36.714Z,1.52
2019-06-07T19:13:44.307Z,1.81
2019-06-07T19:18:52.004Z,1.74
2019-06-07T19:24:00.141Z,1.77
2019-06-07T19:29:06.857Z,1.88
2019-06-07T19:34:14.474Z,1.59
2019-06-07T19:39:22.170Z,1.66
2019-06-07T19:44:29.807Z,1.87
2019-06-07T19:49:37.574Z,1.99
2019-06-07T19:54:45.187Z,1.74
2019-06-07T19:59:53.346Z,2.32
2019-06-07T20:05:04.618Z,1.87
2019-06-07T20:10:07.286Z,1.85
2019-06-07T20:15:28.008Z,1.84
2019-06-07T20:20:23.988Z,1.84
2019-06-07T20:25:29.297Z,1.74
2019-06-07T20:30:36.984Z,1.76
2019-06-07T20:35:44.672Z,2.03
2019-06-07T20:40:52.302Z,2.16
2019-06-07T20:46:03.075Z,2.04
2019-06-07T20:51:08.535Z,2.11
2019-06-07T20:56:14.235Z,3.49
2019-06-07T21:01:21.919Z,2.73
2019-06-07T21:06:29.874Z,1.73
2019-06-07T21:11:38.062Z,2.54
2019-06-07T21:16:45.689Z,1.93
2019-06-07T21:21:53.351Z,1.90
2019-06-07T21:27:01.662Z,2.00
2019-06-07T21:32:09.523Z,1.86
2019-06-07T21:37:15.475Z,1.87
2019-06-07T21:42:23.113Z,2.24
2019-06-07T21:47:31.006Z,2.25
2019-06-07T21:52:38.647Z,2.32
2019-06-07T21:57:46.255Z,2.23
2019-06-07T22:02:53.891Z,1.84
2019-06-07T22:08:01.493Z,2.04
2019-06-07T22:13:10.120Z,2.15
2019-06-07T22:18:16.318Z,2.41
2019-06-07T22:23:23.950Z,1.86
2019-06-07T22:28:31.562Z,2.07
2019-06-07T22:33:39.196Z,2.46
2019-06-07T22:38:46.829Z,2.21
2019-06-07T22:43:54.501Z,2.07
2019-06-07T22:49:02.156Z,2.16
2019-06-07T22:54:09.915Z,1.93
2019-06-07T22:59:19.167Z,1.91
2019-06-07T23:04:24.661Z,1.99
2019-06-07T23:09:32.240Z,2.08
2019-06-07T23:14:39.870Z,1.76
2019-06-07T23:19:47.455Z,1.86
2019-06-07T23:24:55.119Z,1.87
2019-06-07T23:30:08.319Z,2.19
2019-06-07T23:35:10.704Z,2.05
2019-06-07T23:40:17.417Z,1.77
2019-06-07T23:45:24.227Z,1.93
2019-06-07T23:50:31.829Z,1.85
2019-06-07T23:55:39.570Z,1.76
